createdAt,value
2018-07-23T00:00:10.045Z,0.00
2018-07-23T00:01:10.046Z,0.00
2018-07-23T00:02:10.051Z,0.00
2018-07-23T00:03:10.084Z,0.00
2018-07-23T00:04:10.053Z,0.00
2018-07-23T00:05:10.054Z,0.00
2018-07-23T00:06:10.054Z,0.00
2018-07-23T00:07:10.057Z,0.00
2018-07-23T00:08:10.061Z,0.00
2018-07-23T00:09:10.063Z,0.00
2018-07-23T00:10:10.065Z,0.00
2018-07-23T00:11:10.065Z,0.00
2018-07-23T00:12:10.069Z,0.00
2018-07-23T00:13:10.068Z,0.00
2018-07-23T00:14:10.073Z,0.00
2018-07-23T00:15:10.073Z,0.00
2018-07-23T00:16:10.075Z,0.00
2018-07-23T00:17:10.076Z,0.00
2018-07-23T00:18:10.077Z,0.00
2018-07-23T00:19:10.078Z,0.00
2018-07-23T00:20:10.082Z,0.00
2018-07-23T00:21:10.084Z,0.00
2018-07-23T00:22:10.085Z,0.00
2018-07-23T00:23:10.086Z,0.00
2018-07-23T00:24:10.088Z,0.00
2018-07-23T00:25:10.090Z,0.00
2018-07-23T00:26:10.092Z,0.00
2018-07-23T00:27:10.094Z,0.00
2018-07-23T00:28:10.094Z,0.00
2018-07-23T00:29:10.096Z,0.00
2018-07-23T00:30:10.098Z,0.00
2018-07-23T00:31:10.104Z,0.00
2018-07-23T00:32:10.104Z,0.00
2018-07-23T00:33:10.106Z,0.00
2018-07-23T00:34:10.105Z,0.00
2018-07-23T00:35:10.106Z,0.00
2018-07-23T00:36:10.108Z,0.00
2018-07-23T00:37:10.115Z,0.00
2018-07-23T00:38:10.112Z,0.00
2018-07-23T00:39:10.114Z,0.00
2018-07-23T00:40:10.118Z,0.00
2018-07-23T00:41:10.115Z,0.00
2018-07-23T00:42:10.119Z,0.00
2018-07-23T00:43:10.118Z,0.00
2018-07-23T00:44:10.121Z,0.00
2018-07-23T00:45:10.122Z,0.00
2018-07-23T00:46:10.124Z,0.00
2018-07-23T00:47:10.124Z,0.00
2018-07-23T00:48:10.126Z,0.00
2018-07-23T00:49:10.128Z,0.00
2018-07-23T00:50:10.130Z,0.00
2018-07-23T00:51:10.131Z,0.00
2018-07-23T00:52:10.132Z,0.00
2018-07-23T00:53:10.160Z,0.00
2018-07-23T00:54:10.134Z,0.00
2018-07-23T00:55:10.138Z,0.00
2018-07-23T00:56:10.138Z,0.00
2018-07-23T00:57:10.142Z,0.00
2018-07-23T00:58:10.141Z,0.00
2018-07-23T00:59:10.141Z,0.00
2018-07-23T01:00:10.161Z,0.00
2018-07-23T01:01:10.147Z,0.00
2018-07-23T01:02:10.148Z,0.00
2018-07-23T01:03:10.149Z,0.00
2018-07-23T01:04:10.152Z,0.00
2018-07-23T01:05:10.155Z,0.00
2018-07-23T01:06:10.154Z,0.00
2018-07-23T01:07:10.159Z,0.00
2018-07-23T01:08:10.157Z,0.00
2018-07-23T01:09:10.158Z,0.00
2018-07-23T01:10:10.160Z,0.00
2018-07-23T01:11:10.161Z,0.00
2018-07-23T01:12:10.162Z,0.00
2018-07-23T01:13:10.165Z,0.00
2018-07-23T01:14:10.165Z,0.00
2018-07-23T01:15:10.167Z,0.00
2018-07-23T01:16:10.169Z,0.00
2018-07-23T01:17:10.171Z,0.00
2018-07-23T01:18:10.172Z,0.00
2018-07-23T01:19:10.171Z,0.00
2018-07-23T01:20:10.175Z,0.00
2018-07-23T01:21:10.175Z,0.00
2018-07-23T01:22:10.180Z,0.00
2018-07-23T01:23:10.178Z,0.00
2018-07-23T01:24:10.179Z,0.00
2018-07-23T01:25:10.181Z,0.00
2018-07-23T01:26:10.187Z,0.00
2018-07-23T01:27:10.194Z,0.00
2018-07-23T01:28:10.187Z,0.00
2018-07-23T01:29:10.236Z,0.00
2018-07-23T01:30:10.193Z,0.00
2018-07-23T01:31:10.194Z,0.00
2018-07-23T01:32:10.193Z,0.00
2018-07-23T01:33:10.194Z,0.00
2018-07-23T01:34:10.196Z,0.00
2018-07-23T01:35:10.194Z,0.00
2018-07-23T01:36:10.198Z,0.00
2018-07-23T01:37:10.200Z,0.00
2018-07-23T01:38:10.202Z,0.00
2018-07-23T01:39:10.202Z,0.00
2018-07-23T01:40:10.205Z,0.00
2018-07-23T01:41:10.205Z,0.00
2018-07-23T01:42:10.209Z,0.00
2018-07-23T01:43:10.209Z,0.00
2018-07-23T01:44:10.211Z,0.00
2018-07-23T01:45:10.213Z,0.00
2018-07-23T01:46:10.225Z,0.00
2018-07-23T01:47:10.221Z,0.00
2018-07-23T01:48:10.216Z,0.00
2018-07-23T01:49:10.217Z,0.00
2018-07-23T01:50:10.221Z,0.00
2018-07-23T01:51:10.220Z,0.00
2018-07-23T01:52:10.222Z,0.00
2018-07-23T01:53:10.230Z,0.00
2018-07-23T01:54:10.229Z,0.00
2018-07-23T01:55:10.229Z,0.00
2018-07-23T01:56:10.228Z,0.00
2018-07-23T01:57:10.228Z,0.00
2018-07-23T01:58:10.229Z,0.00
2018-07-23T01:59:10.230Z,0.00
2018-07-23T02:00:10.234Z,0.00
2018-07-23T02:01:10.235Z,0.00
2018-07-23T02:02:10.237Z,0.00
2018-07-23T02:03:10.245Z,0.00
2018-07-23T02:04:10.240Z,0.00
2018-07-23T02:05:10.241Z,0.00
2018-07-23T02:06:10.243Z,0.00
2018-07-23T02:07:10.244Z,0.00
2018-07-23T02:08:10.244Z,0.00
2018-07-23T02:09:10.252Z,0.00
2018-07-23T02:10:10.249Z,0.00
2018-07-23T02:11:10.249Z,0.00
2018-07-23T02:12:10.254Z,0.00
2018-07-23T02:13:10.255Z,0.00
2018-07-23T02:14:10.255Z,0.00
2018-07-23T02:15:10.254Z,0.00
2018-07-23T02:16:10.262Z,0.00
2018-07-23T02:17:10.255Z,0.00
2018-07-23T02:18:10.285Z,0.00
2018-07-23T02:19:10.261Z,0.00
2018-07-23T02:20:10.262Z,0.00
2018-07-23T02:21:10.264Z,0.00
2018-07-23T02:22:10.268Z,0.00
2018-07-23T02:23:10.268Z,0.00
2018-07-23T02:24:10.267Z,0.00
2018-07-23T02:25:10.274Z,0.00
2018-07-23T02:26:10.270Z,0.00
2018-07-23T02:27:10.270Z,0.00
2018-07-23T02:28:10.274Z,0.00
2018-07-23T02:29:10.273Z,0.00
2018-07-23T02:30:10.281Z,4.00
2018-07-23T02:31:10.279Z,4.00
2018-07-23T02:32:10.278Z,0.00
2018-07-23T02:33:10.281Z,0.00
2018-07-23T02:34:10.281Z,4.00
2018-07-23T02:35:10.283Z,4.00
2018-07-23T02:36:10.283Z,4.00
2018-07-23T02:37:10.323Z,4.00
2018-07-23T02:38:10.287Z,4.00
2018-07-23T02:39:10.285Z,4.00
2018-07-23T02:40:10.289Z,4.00
2018-07-23T02:41:10.290Z,8.00
2018-07-23T02:42:10.295Z,8.00
2018-07-23T02:43:10.293Z,8.00
2018-07-23T02:44:10.293Z,12.00
2018-07-23T02:45:10.298Z,12.00
2018-07-23T02:46:10.301Z,12.00
2018-07-23T02:47:10.297Z,12.00
2018-07-23T02:48:10.298Z,12.00
2018-07-23T02:49:10.299Z,16.00
2018-07-23T02:50:10.305Z,20.00
2018-07-23T02:51:10.302Z,20.00
2018-07-23T02:52:10.303Z,24.00
2018-07-23T02:53:10.308Z,24.00
2018-07-23T02:54:10.305Z,32.00
2018-07-23T02:55:10.308Z,36.00
2018-07-23T02:56:10.312Z,36.00
2018-07-23T02:57:10.310Z,40.00
2018-07-23T02:58:10.311Z,48.00
2018-07-23T02:59:10.311Z,52.00
2018-07-23T03:00:10.315Z,56.00
2018-07-23T03:01:10.312Z,60.00
2018-07-23T03:02:10.316Z,68.00
2018-07-23T03:03:10.323Z,72.00
2018-07-23T03:04:10.318Z,80.00
2018-07-23T03:05:10.319Z,88.00
2018-07-23T03:06:10.324Z,92.00
2018-07-23T03:07:10.322Z,100.00
2018-07-23T03:08:10.322Z,108.00
2018-07-23T03:09:10.320Z,112.00
2018-07-23T03:10:10.324Z,120.00
2018-07-23T03:11:10.323Z,132.00
2018-07-23T03:12:10.331Z,140.00
2018-07-23T03:13:10.324Z,148.00
2018-07-23T03:14:10.329Z,156.00
2018-07-23T03:15:10.327Z,168.00
2018-07-23T03:16:10.328Z,176.00
2018-07-23T03:17:10.332Z,192.00
2018-07-23T03:18:10.332Z,200.00
2018-07-23T03:19:10.337Z,212.00
2018-07-23T03:20:10.333Z,224.00
2018-07-23T03:21:10.332Z,236.00
2018-07-23T03:22:10.334Z,248.00
2018-07-23T03:23:10.338Z,264.00
2018-07-23T03:24:10.334Z,280.00
2018-07-23T03:25:10.339Z,292.00
2018-07-23T03:26:10.336Z,308.00
2018-07-23T03:27:10.342Z,320.00
2018-07-23T03:28:10.336Z,344.00
2018-07-23T03:29:10.340Z,360.00
2018-07-23T03:30:10.346Z,380.00
2018-07-23T03:31:10.341Z,400.00
2018-07-23T03:32:10.344Z,420.00
2018-07-23T03:33:10.344Z,444.00
2018-07-23T03:34:10.344Z,468.00
2018-07-23T03:35:10.345Z,492.00
2018-07-23T03:36:10.349Z,516.00
2018-07-23T03:37:10.348Z,544.00
2018-07-23T03:38:10.349Z,568.00
2018-07-23T03:39:10.348Z,600.00
2018-07-23T03:40:10.349Z,636.00
2018-07-23T03:41:10.351Z,668.00
2018-07-23T03:42:10.352Z,700.00
2018-07-23T03:43:10.349Z,740.00
2018-07-23T03:44:10.354Z,772.00
2018-07-23T03:45:10.354Z,804.00
2018-07-23T03:46:10.356Z,840.00
2018-07-23T03:47:10.357Z,880.00
2018-07-23T03:48:10.355Z,912.00
2018-07-23T03:49:10.359Z,936.00
2018-07-23T03:50:10.362Z,964.00
2018-07-23T03:51:10.360Z,1000.00
2018-07-23T03:52:10.362Z,1032.00
2018-07-23T03:53:10.363Z,1068.00
2018-07-23T03:54:10.365Z,1104.00
2018-07-23T03:55:10.363Z,1136.00
2018-07-23T03:56:10.371Z,1172.00
2018-07-23T03:57:10.371Z,1220.00
2018-07-23T03:58:10.366Z,1268.00
2018-07-23T03:59:10.368Z,1316.00
2018-07-23T04:00:10.368Z,1364.00
2018-07-23T04:01:10.369Z,1412.00
2018-07-23T04:02:10.375Z,1472.00
2018-07-23T04:03:10.375Z,1536.00
2018-07-23T04:04:10.376Z,1600.00
2018-07-23T04:05:10.375Z,1668.00
2018-07-23T04:06:10.376Z,1728.00
2018-07-23T04:07:10.378Z,1796.00
2018-07-23T04:08:10.377Z,1844.00
2018-07-23T04:09:10.377Z,1888.00
2018-07-23T04:10:10.380Z,1928.00
2018-07-23T04:11:10.381Z,1912.00
2018-07-23T04:12:10.381Z,1872.00
2018-07-23T04:13:10.382Z,1884.00
2018-07-23T04:14:10.384Z,1924.00
2018-07-23T04:15:10.384Z,1980.00
2018-07-23T04:16:10.385Z,2036.00
2018-07-23T04:17:10.386Z,2140.00
2018-07-23T04:18:10.388Z,2228.00
2018-07-23T04:19:10.388Z,2456.00
2018-07-23T04:20:10.390Z,2664.00
2018-07-23T04:21:10.389Z,2716.00
2018-07-23T04:22:10.393Z,2772.00
2018-07-23T04:23:10.394Z,2828.00
2018-07-23T04:24:10.398Z,2888.00
2018-07-23T04:25:10.397Z,2952.00
2018-07-23T04:26:10.398Z,3016.00
2018-07-23T04:27:10.396Z,3108.00
2018-07-23T04:28:10.406Z,3208.00
2018-07-23T04:29:10.402Z,3296.00
2018-07-23T04:30:10.404Z,3408.00
2018-07-23T04:31:10.404Z,3508.00
2018-07-23T04:32:10.404Z,3544.00
2018-07-23T04:33:10.407Z,3628.00
2018-07-23T04:34:10.409Z,3664.00
2018-07-23T04:35:10.411Z,3648.00
2018-07-23T04:36:10.410Z,3796.00
2018-07-23T04:37:10.413Z,3916.00
2018-07-23T04:38:10.412Z,4040.00
2018-07-23T04:39:10.414Z,4188.00
2018-07-23T04:40:10.417Z,4296.00
2018-07-23T04:41:10.419Z,4432.00
2018-07-23T04:42:10.421Z,4520.00
2018-07-23T04:43:10.421Z,4632.00
2018-07-23T04:44:10.424Z,4740.00
2018-07-23T04:45:10.429Z,4844.00
2018-07-23T04:46:10.433Z,4952.00
2018-07-23T04:47:10.427Z,5060.00
2018-07-23T04:48:10.430Z,5152.00
2018-07-23T04:49:10.434Z,5236.00
2018-07-23T04:50:10.436Z,5336.00
2018-07-23T04:51:10.440Z,5420.00
2018-07-23T04:52:10.450Z,5464.00
2018-07-23T04:53:10.441Z,5548.00
2018-07-23T04:54:10.443Z,5612.00
2018-07-23T04:55:10.444Z,5672.00
2018-07-23T04:56:10.449Z,5736.00
2018-07-23T04:57:10.450Z,5804.00
2018-07-23T04:58:10.455Z,5872.00
2018-07-23T04:59:10.455Z,5916.00
2018-07-23T05:00:10.454Z,5968.00
2018-07-23T05:01:10.459Z,6044.00
2018-07-23T05:02:10.461Z,6088.00
2018-07-23T05:03:10.476Z,6160.00
2018-07-23T05:04:10.469Z,6204.00
2018-07-23T05:05:10.468Z,6276.00
2018-07-23T05:06:10.472Z,6320.00
2018-07-23T05:07:10.474Z,6368.00
2018-07-23T05:08:10.475Z,6404.00
2018-07-23T05:09:10.489Z,6464.00
2018-07-23T05:10:10.480Z,6496.00
2018-07-23T05:11:10.485Z,6552.00
2018-07-23T05:12:10.486Z,6616.00
2018-07-23T05:13:10.496Z,6664.00
2018-07-23T05:14:10.492Z,6712.00
2018-07-23T05:15:10.493Z,6712.00
2018-07-23T05:16:10.505Z,6760.00
2018-07-23T05:17:10.499Z,6784.00
2018-07-23T05:18:10.504Z,6820.00
2018-07-23T05:19:10.504Z,6848.00
2018-07-23T05:20:10.508Z,6900.00
2018-07-23T05:21:10.514Z,6948.00
2018-07-23T05:22:10.515Z,6988.00
2018-07-23T05:23:10.517Z,7028.00
2018-07-23T05:24:10.521Z,7072.00
2018-07-23T05:25:10.523Z,7140.00
2018-07-23T05:26:10.569Z,7180.00
2018-07-23T05:27:10.532Z,7216.00
2018-07-23T05:28:10.532Z,7252.00
2018-07-23T05:29:10.535Z,7288.00
2018-07-23T05:30:10.539Z,7320.00
2018-07-23T05:31:10.543Z,7352.00
2018-07-23T05:32:10.545Z,7364.00
2018-07-23T05:33:10.547Z,7376.00
2018-07-23T05:34:10.559Z,7388.00
2018-07-23T05:35:10.560Z,7436.00
2018-07-23T05:36:10.560Z,7480.00
2018-07-23T05:37:10.563Z,7468.00
2018-07-23T05:38:10.607Z,7508.00
2018-07-23T05:39:10.575Z,7564.00
2018-07-23T05:40:10.573Z,7608.00
2018-07-23T05:41:10.578Z,7636.00
2018-07-23T05:42:10.581Z,7648.00
2018-07-23T05:43:10.584Z,7676.00
2018-07-23T05:44:10.588Z,7716.00
2018-07-23T05:45:10.595Z,7760.00
2018-07-23T05:46:10.601Z,7808.00
2018-07-23T05:47:10.630Z,7820.00
2018-07-23T05:48:10.602Z,7832.00
2018-07-23T05:49:10.608Z,7868.00
2018-07-23T05:50:10.611Z,7832.00
2018-07-23T05:51:10.616Z,7824.00
2018-07-23T05:52:10.622Z,7860.00
2018-07-23T05:53:10.624Z,7872.00
2018-07-23T05:54:10.628Z,7884.00
2018-07-23T05:55:10.632Z,7900.00
2018-07-23T05:56:10.636Z,7940.00
2018-07-23T05:57:10.644Z,7972.00
2018-07-23T05:58:10.651Z,7988.00
2018-07-23T05:59:10.649Z,8032.00
2018-07-23T06:00:10.665Z,8112.00
2018-07-23T06:01:10.661Z,8152.00
2018-07-23T06:02:10.661Z,8200.00
2018-07-23T06:03:10.668Z,8280.00
2018-07-23T06:04:10.673Z,8376.00
2018-07-23T06:05:10.682Z,8472.00
2018-07-23T06:06:10.683Z,8572.00
2018-07-23T06:07:10.688Z,8704.00
2018-07-23T06:08:10.691Z,8896.00
2018-07-23T06:09:10.697Z,9072.00
2018-07-23T06:10:10.702Z,9412.00
2018-07-23T06:11:10.708Z,11336.00
2018-07-23T06:12:10.719Z,20736.00
2018-07-23T06:13:10.742Z,29920.00
2018-07-23T06:14:10.725Z,29696.00
2018-07-23T06:15:10.727Z,28896.00
2018-07-23T06:16:10.736Z,29216.00
2018-07-23T06:17:10.745Z,29280.00
2018-07-23T06:18:10.750Z,30112.00
2018-07-23T06:19:10.752Z,29280.00
2018-07-23T06:20:10.750Z,27200.00
2018-07-23T06:21:10.761Z,24768.00
2018-07-23T06:22:10.767Z,22720.00
2018-07-23T06:23:10.770Z,22336.00
2018-07-23T06:24:10.774Z,22240.00
2018-07-23T06:25:10.786Z,22112.00
2018-07-23T06:26:10.788Z,24192.00
2018-07-23T06:27:10.796Z,26272.00
2018-07-23T06:28:10.800Z,26752.00
2018-07-23T06:29:10.807Z,28448.00
2018-07-23T06:30:10.826Z,26944.00
2018-07-23T06:31:10.825Z,24704.00
2018-07-23T06:32:10.827Z,26592.00
2018-07-23T06:33:10.833Z,30816.00
2018-07-23T06:34:10.838Z,34048.00
2018-07-23T06:35:10.844Z,38816.00
2018-07-23T06:36:10.853Z,46528.00
2018-07-23T06:37:10.857Z,46720.00
2018-07-23T06:38:10.864Z,39136.00
2018-07-23T06:39:10.869Z,36672.00
2018-07-23T06:40:10.907Z,39104.00
2018-07-23T06:41:10.883Z,38176.00
2018-07-23T06:42:10.890Z,41120.00
2018-07-23T06:43:10.950Z,43328.00
2018-07-23T06:44:10.904Z,49152.00
2018-07-23T06:45:10.910Z,54944.00
2018-07-23T06:46:10.917Z,52032.00
2018-07-23T06:47:10.922Z,49280.00
2018-07-23T06:48:10.934Z,54240.00
2018-07-23T06:49:10.940Z,57376.00
2018-07-23T06:50:10.990Z,52512.00
2018-07-23T06:51:10.952Z,46432.00
2018-07-23T06:52:10.959Z,46944.00
2018-07-23T06:53:10.966Z,53696.00
2018-07-23T06:54:11.044Z,54464.00
2018-07-23T06:55:10.979Z,51808.00
2018-07-23T06:56:10.985Z,51488.00
2018-07-23T06:57:10.992Z,47776.00
2018-07-23T06:58:11.001Z,42528.00
2018-07-23T06:59:11.005Z,46688.00
2018-07-23T07:00:11.016Z,50784.00
2018-07-23T07:01:11.023Z,53728.00
2018-07-23T07:02:11.031Z,59552.00
2018-07-23T07:03:11.046Z,60672.00
2018-07-23T07:04:11.045Z,54912.00
2018-07-23T07:05:11.051Z,55680.00
2018-07-23T07:06:11.061Z,60416.00
2018-07-23T07:07:11.072Z,59328.00
2018-07-23T07:08:11.074Z,60960.00
2018-07-23T07:09:11.081Z,64416.00
2018-07-23T07:10:11.090Z,65504.00
2018-07-23T07:11:11.100Z,68000.00
2018-07-23T07:12:11.108Z,67840.00
2018-07-23T07:13:11.120Z,61888.00
2018-07-23T07:14:11.129Z,59008.00
2018-07-23T07:15:11.131Z,59328.00
2018-07-23T07:16:11.137Z,55776.00
2018-07-23T07:17:11.143Z,58976.00
2018-07-23T07:18:11.151Z,64768.00
2018-07-23T07:19:11.158Z,63744.00
2018-07-23T07:20:11.166Z,66336.00
2018-07-23T07:21:11.174Z,68416.00
2018-07-23T07:22:11.183Z,63744.00
2018-07-23T07:23:11.189Z,60512.00
2018-07-23T07:24:11.202Z,65312.00
2018-07-23T07:25:11.207Z,66048.00
2018-07-23T07:26:11.214Z,64576.00
2018-07-23T07:27:11.230Z,66144.00
2018-07-23T07:28:11.229Z,66080.00
2018-07-23T07:29:11.237Z,63328.00
2018-07-23T07:30:11.249Z,64256.00
2018-07-23T07:31:11.261Z,65536.00
2018-07-23T07:32:11.261Z,64096.00
2018-07-23T07:33:11.267Z,66304.00
2018-07-23T07:34:11.277Z,68256.00
2018-07-23T07:35:11.285Z,66560.00
2018-07-23T07:36:11.292Z,66656.00
2018-07-23T07:37:11.301Z,70336.00
2018-07-23T07:38:11.366Z,71392.00
2018-07-23T07:39:11.317Z,70528.00
2018-07-23T07:40:11.325Z,72224.00
2018-07-23T07:41:11.339Z,70848.00
2018-07-23T07:42:11.348Z,69856.00
2018-07-23T07:43:11.353Z,68800.00
2018-07-23T07:44:11.361Z,68672.00
2018-07-23T07:45:11.374Z,63584.00
2018-07-23T07:46:11.380Z,56096.00
2018-07-23T07:47:11.389Z,54560.00
2018-07-23T07:48:11.401Z,58432.00
2018-07-23T07:49:11.409Z,64416.00
2018-07-23T07:50:11.416Z,68768.00
2018-07-23T07:51:11.428Z,69472.00
2018-07-23T07:52:11.435Z,68512.00
2018-07-23T07:53:11.455Z,67584.00
2018-07-23T07:54:11.456Z,67840.00
2018-07-23T07:55:11.465Z,66592.00
2018-07-23T07:56:11.509Z,61728.00
2018-07-23T07:57:11.484Z,56576.00
2018-07-23T07:58:11.494Z,57248.00
2018-07-23T07:59:11.562Z,61248.00
2018-07-23T08:00:11.513Z,66176.00
2018-07-23T08:01:11.523Z,71744.00
2018-07-23T08:02:11.532Z,73184.00
2018-07-23T08:03:11.541Z,70848.00
2018-07-23T08:04:11.551Z,69344.00
2018-07-23T08:05:11.562Z,73696.00
2018-07-23T08:06:11.588Z,73504.00
2018-07-23T08:07:11.605Z,73408.00
2018-07-23T08:08:11.589Z,75296.00
2018-07-23T08:09:11.600Z,80800.00
2018-07-23T08:10:11.611Z,82272.00
2018-07-23T08:11:11.656Z,81728.00
2018-07-23T08:12:11.629Z,82336.00
2018-07-23T08:13:11.635Z,80672.00
2018-07-23T08:14:11.649Z,79488.00
2018-07-23T08:15:11.658Z,79328.00
2018-07-23T08:16:11.666Z,78432.00
2018-07-23T08:17:11.675Z,76416.00
2018-07-23T08:18:11.686Z,78048.00
2018-07-23T08:19:11.695Z,80032.00
2018-07-23T08:20:11.712Z,80704.00
2018-07-23T08:21:11.717Z,78304.00
2018-07-23T08:22:11.724Z,75616.00
2018-07-23T08:23:11.735Z,72640.00
2018-07-23T08:24:11.748Z,75008.00
2018-07-23T08:25:11.862Z,78432.00
2018-07-23T08:26:11.766Z,84416.00
2018-07-23T08:27:11.779Z,87488.00
2018-07-23T08:28:11.788Z,86336.00
2018-07-23T08:29:11.795Z,84160.00
2018-07-23T08:30:11.808Z,82720.00
2018-07-23T08:31:11.815Z,81280.00
2018-07-23T08:32:11.920Z,84064.00
2018-07-23T08:33:11.838Z,88288.00
2018-07-23T08:34:11.850Z,91136.00
2018-07-23T08:35:11.857Z,91584.00
2018-07-23T08:36:11.868Z,90784.00
2018-07-23T08:37:11.929Z,89408.00
2018-07-23T08:38:11.891Z,91168.00
2018-07-23T08:39:11.899Z,93856.00
2018-07-23T08:40:11.912Z,97728.00
2018-07-23T08:41:11.923Z,99136.00
2018-07-23T08:42:11.939Z,97472.00
2018-07-23T08:43:12.008Z,98944.00
2018-07-23T08:44:11.956Z,103008.00
2018-07-23T08:45:11.970Z,103968.00
2018-07-23T08:46:11.979Z,101856.00
2018-07-23T08:47:11.989Z,98688.00
2018-07-23T08:48:12.002Z,94784.00
2018-07-23T08:49:12.016Z,93376.00
2018-07-23T08:50:12.026Z,92160.00
2018-07-23T08:51:12.047Z,89568.00
2018-07-23T08:52:12.047Z,88704.00
2018-07-23T08:53:12.058Z,89952.00
2018-07-23T08:54:12.071Z,96352.00
2018-07-23T08:55:12.082Z,103392.00
2018-07-23T08:56:12.109Z,107136.00
2018-07-23T08:57:12.105Z,105408.00
2018-07-23T08:58:12.114Z,99872.00
2018-07-23T08:59:12.126Z,99328.00
2018-07-23T09:00:12.142Z,99264.00
2018-07-23T09:01:12.147Z,99040.00
2018-07-23T09:02:12.185Z,59328.00
2018-07-23T09:03:12.184Z,9292.00
2018-07-23T09:04:12.184Z,4532.00
2018-07-23T09:05:12.197Z,4400.00
2018-07-23T09:06:12.208Z,4336.00
2018-07-23T09:07:12.216Z,4196.00
2018-07-23T09:08:12.231Z,4008.00
2018-07-23T09:09:12.238Z,3912.00
2018-07-23T09:10:12.244Z,3860.00
2018-07-23T09:11:12.259Z,3808.00
2018-07-23T09:12:12.268Z,3748.00
2018-07-23T09:13:12.283Z,3712.00
2018-07-23T09:14:12.289Z,3696.00
2018-07-23T09:15:12.298Z,3696.00
2018-07-23T09:16:12.306Z,3668.00
2018-07-23T09:17:12.333Z,3632.00
2018-07-23T09:18:12.330Z,3608.00
2018-07-23T09:19:12.334Z,3600.00
2018-07-23T09:20:12.340Z,3596.00
2018-07-23T09:21:12.348Z,3560.00
2018-07-23T09:22:12.415Z,3512.00
2018-07-23T09:23:12.364Z,3480.00
2018-07-23T09:24:12.387Z,3472.00
2018-07-23T09:25:12.380Z,3444.00
2018-07-23T09:26:12.387Z,3424.00
2018-07-23T09:27:12.393Z,3424.00
2018-07-23T09:28:12.401Z,3408.00
2018-07-23T09:29:12.408Z,3416.00
2018-07-23T09:30:12.424Z,3420.00
2018-07-23T09:31:12.421Z,3400.00
2018-07-23T09:32:12.428Z,3400.00
2018-07-23T09:33:12.435Z,3408.00
2018-07-23T09:34:12.445Z,3396.00
2018-07-23T09:35:12.449Z,3404.00
2018-07-23T09:36:12.454Z,3420.00
2018-07-23T09:37:12.511Z,3404.00
2018-07-23T09:38:12.467Z,3412.00
2018-07-23T09:39:12.472Z,3400.00
2018-07-23T09:40:12.479Z,3408.00
2018-07-23T09:41:12.485Z,3424.00
2018-07-23T09:42:12.491Z,3428.00
2018-07-23T09:43:12.496Z,3420.00
2018-07-23T09:44:12.501Z,3420.00
2018-07-23T09:45:12.508Z,3412.00
2018-07-23T09:46:12.513Z,3368.00
2018-07-23T09:47:12.519Z,3344.00
2018-07-23T09:48:12.523Z,3388.00
2018-07-23T09:49:12.533Z,3396.00
2018-07-23T09:50:12.534Z,3392.00
2018-07-23T09:51:12.540Z,3408.00
2018-07-23T09:52:12.544Z,3448.00
2018-07-23T09:53:12.553Z,3408.00
2018-07-23T09:54:12.583Z,3364.00
2018-07-23T09:55:12.561Z,3372.00
2018-07-23T09:56:12.566Z,3412.00
2018-07-23T09:57:12.570Z,3384.00
2018-07-23T09:58:12.575Z,3380.00
2018-07-23T09:59:12.581Z,3356.00
2018-07-23T10:00:12.588Z,3364.00
2018-07-23T10:01:12.593Z,3392.00
2018-07-23T10:02:12.600Z,3408.00
2018-07-23T10:03:12.706Z,3392.00
2018-07-23T10:04:12.608Z,3348.00
2018-07-23T10:05:12.613Z,3296.00
2018-07-23T10:06:12.614Z,3252.00
2018-07-23T10:07:12.620Z,3260.00
2018-07-23T10:08:12.624Z,3264.00
2018-07-23T10:09:12.629Z,3208.00
2018-07-23T10:10:12.635Z,3208.00
2018-07-23T10:11:12.642Z,3248.00
2018-07-23T10:12:12.645Z,3284.00
2018-07-23T10:13:12.650Z,3284.00
2018-07-23T10:14:12.676Z,3240.00
2018-07-23T10:15:12.657Z,3232.00
2018-07-23T10:16:12.662Z,3192.00
2018-07-23T10:17:12.667Z,3156.00
2018-07-23T10:18:12.677Z,3116.00
2018-07-23T10:19:12.677Z,3112.00
2018-07-23T10:20:12.681Z,3124.00
2018-07-23T10:21:12.687Z,3132.00
2018-07-23T10:22:12.741Z,3136.00
2018-07-23T10:23:12.700Z,3104.00
2018-07-23T10:24:12.705Z,3064.00
2018-07-23T10:25:12.708Z,3076.00
2018-07-23T10:26:12.712Z,3116.00
2018-07-23T10:27:12.716Z,3060.00
2018-07-23T10:28:12.720Z,3056.00
2018-07-23T10:29:12.725Z,3064.00
2018-07-23T10:30:12.731Z,3072.00
2018-07-23T10:31:12.734Z,3040.00
2018-07-23T10:32:12.740Z,3012.00
2018-07-23T10:33:12.744Z,3028.00
2018-07-23T10:34:12.748Z,3028.00
2018-07-23T10:35:12.805Z,3032.00
2018-07-23T10:36:12.759Z,3044.00
2018-07-23T10:37:12.767Z,3036.00
2018-07-23T10:38:12.772Z,3008.00
2018-07-23T10:39:12.771Z,3020.00
2018-07-23T10:40:12.777Z,3056.00
2018-07-23T10:41:12.792Z,3060.00
2018-07-23T10:42:12.786Z,3080.00
2018-07-23T10:43:12.789Z,3084.00
2018-07-23T10:44:12.796Z,3044.00
2018-07-23T10:45:12.811Z,3008.00
2018-07-23T10:46:12.805Z,3012.00
2018-07-23T10:47:12.842Z,3008.00
2018-07-23T10:48:12.813Z,3016.00
2018-07-23T10:49:12.824Z,3004.00
2018-07-23T10:50:12.824Z,3012.00
2018-07-23T10:51:12.828Z,3044.00
2018-07-23T10:52:12.833Z,3080.00
2018-07-23T10:53:12.839Z,3104.00
2018-07-23T10:54:12.864Z,3116.00
2018-07-23T10:55:12.848Z,3088.00
2018-07-23T10:56:12.853Z,3044.00
2018-07-23T10:57:12.903Z,3024.00
2018-07-23T10:58:12.861Z,3040.00
2018-07-23T10:59:12.867Z,3064.00
2018-07-23T11:00:12.871Z,3044.00
2018-07-23T11:01:12.877Z,3040.00
2018-07-23T11:02:12.883Z,3020.00
2018-07-23T11:03:12.886Z,3008.00
2018-07-23T11:04:12.927Z,2988.00
2018-07-23T11:05:12.898Z,2976.00
2018-07-23T11:06:12.902Z,2960.00
2018-07-23T11:07:12.910Z,2924.00
2018-07-23T11:08:12.927Z,2896.00
2018-07-23T11:09:12.917Z,2892.00
2018-07-23T11:10:12.920Z,2892.00
2018-07-23T11:11:12.931Z,2896.00
2018-07-23T11:12:12.933Z,2928.00
2018-07-23T11:13:12.938Z,2928.00
2018-07-23T11:14:12.946Z,2940.00
2018-07-23T11:15:12.948Z,2952.00
2018-07-23T11:16:12.949Z,2932.00
2018-07-23T11:17:12.953Z,2920.00
2018-07-23T11:18:12.959Z,2908.00
2018-07-23T11:19:13.024Z,2888.00
2018-07-23T11:20:12.969Z,2912.00
2018-07-23T11:21:12.973Z,2912.00
2018-07-23T11:22:12.979Z,2876.00
2018-07-23T11:23:12.982Z,2852.00
2018-07-23T11:24:12.985Z,2852.00
2018-07-23T11:25:38.596Z,2840.00
2018-07-23T11:26:13.003Z,2836.00
2018-07-23T11:27:13.005Z,2872.00
2018-07-23T11:28:13.009Z,2900.00
2018-07-23T11:29:13.013Z,2880.00
2018-07-23T11:30:13.020Z,2880.00
2018-07-23T11:31:13.025Z,2896.00
2018-07-23T11:32:13.030Z,2896.00
2018-07-23T11:33:13.032Z,2884.00
2018-07-23T11:34:13.038Z,2860.00
2018-07-23T11:35:13.042Z,2860.00
2018-07-23T11:36:13.048Z,2860.00
2018-07-23T11:37:13.054Z,2852.00
2018-07-23T11:38:13.057Z,2836.00
2018-07-23T11:39:13.063Z,2828.00
2018-07-23T11:40:13.067Z,2836.00
2018-07-23T11:41:13.073Z,2848.00
2018-07-23T11:42:13.078Z,2880.00
2018-07-23T11:43:13.084Z,2876.00
2018-07-23T11:44:13.087Z,2848.00
2018-07-23T11:45:13.100Z,2852.00
2018-07-23T11:46:24.448Z,2840.00
2018-07-23T11:47:13.131Z,2828.00
2018-07-23T11:48:13.105Z,2820.00
2018-07-23T11:49:13.114Z,2800.00
2018-07-23T11:50:13.117Z,2764.00
2018-07-23T11:51:13.122Z,2752.00
2018-07-23T11:52:14.356Z,2756.00
2018-07-23T11:53:13.160Z,2760.00
2018-07-23T11:54:13.137Z,2764.00
2018-07-23T11:55:13.142Z,2720.00
2018-07-23T11:56:13.147Z,2736.00
2018-07-23T11:57:13.152Z,2736.00
2018-07-23T11:58:13.157Z,2732.00
2018-07-23T11:59:13.160Z,2720.00
2018-07-23T12:00:13.166Z,2712.00
2018-07-23T12:01:13.171Z,2716.00
2018-07-23T12:02:13.176Z,2704.00
2018-07-23T12:03:13.181Z,2716.00
2018-07-23T12:04:13.244Z,2720.00
2018-07-23T12:05:13.199Z,2752.00
2018-07-23T12:06:13.196Z,2760.00
2018-07-23T12:07:13.200Z,2760.00
2018-07-23T12:08:13.247Z,2740.00
2018-07-23T12:09:13.214Z,2740.00
2018-07-23T12:10:13.217Z,2740.00
2018-07-23T12:11:13.227Z,2716.00
2018-07-23T12:12:13.232Z,2732.00
2018-07-23T12:13:13.232Z,2740.00
2018-07-23T12:14:13.237Z,2748.00
2018-07-23T12:15:13.241Z,2760.00
2018-07-23T12:16:13.247Z,2736.00
2018-07-23T12:17:13.265Z,2764.00
2018-07-23T12:18:13.259Z,2904.00